Time;durP1;ratioP1;P1;durP2;ratioP2;P2;SDS_P1;SDS_P2;PMS_P1;PMS_P2;Temp;Humidity;BMP_temperature;BMP_pressure;BME280_temperature;BME280_humidity;BME280_pressure;Samples;Min_cycle;Max_cycle;Signal;HPM_P1;HPM_P2
2022/09/24 00:01:54;;;;;;;1.17;1.17;;;;;10.60;95756.00;;;;5096258;28;20235;-63
2022/09/24 00:04:25;;;;;;;0.87;0.87;;;;;10.50;95761.00;;;;5114107;28;20633;-62
2022/09/24 00:06:52;;;;;;;0.80;0.80;;;;;10.40;95758.00;;;;5113996;28;20625;-62
2022/09/24 00:09:21;;;;;;;1.00;1.00;;;;;10.30;95754.00;;;;5095940;28;20221;-63
2022/09/24 00:11:48;;;;;;;1.30;1.30;;;;;10.40;95750.00;;;;5114189;28;20189;-65
2022/09/24 00:14:18;;;;;;;0.87;0.87;;;;;10.50;95743.00;;;;5113952;28;20617;-65
2022/09/24 00:16:45;;;;;;;1.70;1.47;;;;;10.50;95745.00;;;;5114217;28;20224;-65
2022/09/24 00:19:14;;;;;;;0.77;0.77;;;;;10.40;95739.00;;;;5113909;28;20205;-64
2022/09/24 00:21:42;;;;;;;0.90;0.90;;;;;10.40;95731.00;;;;5114016;28;20193;-64
2022/09/24 00:26:48;;;;;;;1.37;1.37;;;;;10.50;95737.00;;;;5095855;28;20640;-63
2022/09/24 00:27:02;;;;;;;0.90;0.90;;;;;10.50;95736.00;;;;5113483;28;20224;-65
2022/09/24 00:29:30;;;;;;;0.87;0.87;;;;;10.40;95730.00;;;;5113987;28;20284;-65
2022/09/24 00:31:57;;;;;;;1.00;1.00;;;;;10.40;95735.00;;;;5113925;28;20209;-65
2022/09/24 00:34:24;;;;;;;1.00;1.00;;;;;10.20;95734.00;;;;5113942;28;20194;-65
2022/09/24 00:36:51;;;;;;;1.03;0.90;;;;;10.10;95727.00;;;;5113925;28;20256;-64
2022/09/24 00:39:18;;;;;;;1.07;1.07;;;;;10.10;95725.00;;;;5113761;28;20202;-65
2022/09/24 00:41:47;;;;;;;0.90;0.90;;;;;10.00;95715.00;;;;5113798;28;20205;-64
2022/09/24 00:44:52;;;;;;;0.43;0.43;;;;;10.00;95701.00;;;;5113966;28;20633;-65
2022/09/24 00:47:26;;;;;;;0.80;0.80;;;;;10.00;95703.00;;;;5113547;28;20245;-65
2022/09/24 00:49:57;;;;;;;0.80;0.80;;;;;10.00;95706.00;;;;5113878;28;20190;-65
2022/09/24 00:52:24;;;;;;;0.80;0.80;;;;;9.90;95715.00;;;;5113599;28;20217;-63
2022/09/24 00:54:52;;;;;;;0.73;0.73;;;;;9.90;95715.00;;;;5113466;28;20282;-64
2022/09/24 00:57:19;;;;;;;0.87;0.87;;;;;9.90;95717.00;;;;5113385;28;20530;-63
2022/09/24 00:59:46;;;;;;;0.90;0.90;;;;;10.00;95714.00;;;;5113288;28;20278;-63
2022/09/24 01:02:14;;;;;;;1.20;1.20;;;;;10.00;95707.00;;;;5113482;28;20496;-63
2022/09/24 01:04:41;;;;;;;1.37;1.27;;;;;9.90;95704.00;;;;5113194;28;20667;-63
2022/09/24 01:07:07;;;;;;;0.80;0.80;;;;;10.00;95696.00;;;;5113528;28;20217;-63
2022/09/24 01:09:37;;;;;;;1.17;1.10;;;;;9.90;95697.00;;;;5113339;28;20228;-63
2022/09/24 01:12:13;;;;;;;0.93;0.93;;;;;9.80;95694.00;;;;5113213;28;20254;-64
2022/09/24 01:14:54;;;;;;;0.80;0.80;;;;;9.80;95690.00;;;;5113244;28;20208;-63
2022/09/24 01:17:29;;;;;;;0.70;0.70;;;;;9.70;95687.00;;;;5113142;28;20256;-65
2022/09/24 01:20:47;;;;;;;1.00;1.00;;;;;9.60;95678.00;;;;5113283;28;20202;-65
2022/09/24 01:23:40;;;;;;;4.17;2.00;;;;;9.70;95684.00;;;;5104718;28;20209;-63
2022/09/24 01:26:18;;;;;;;2.43;1.67;;;;;9.60;95687.00;;;;5113162;28;20315;-65
2022/09/24 01:29:04;;;;;;;1.03;1.03;;;;;9.70;95670.00;;;;5113100;28;20670;-65
2022/09/24 01:31:35;;;;;;;1.53;1.43;;;;;9.70;95664.00;;;;5113071;28;20197;-63
2022/09/24 01:34:04;;;;;;;1.00;0.97;;;;;9.70;95658.00;;;;5113106;28;20221;-63
2022/09/24 01:36:33;;;;;;;1.47;1.47;;;;;9.70;95668.00;;;;5113354;28;20191;-63
2022/09/24 01:39:00;;;;;;;4.57;1.60;;;;;9.70;95660.00;;;;5094976;28;20222;-64
2022/09/24 01:41:27;;;;;;;1.20;1.17;;;;;9.70;95648.00;;;;5112967;28;20213;-62
2022/09/24 01:43:54;;;;;;;1.63;1.53;;;;;9.70;95653.00;;;;5112734;28;20200;-60
2022/09/24 01:46:21;;;;;;;0.87;0.87;;;;;9.80;95639.00;;;;5113012;28;20174;-61
2022/09/24 01:48:49;;;;;;;0.90;0.90;;;;;9.80;95635.00;;;;5112927;28;20230;-60
2022/09/24 01:51:24;;;;;;;4.00;1.93;;;;;9.80;95635.00;;;;5112805;28;20194;-63
2022/09/24 01:53:56;;;;;;;3.03;2.00;;;;;9.70;95639.00;;;;5112877;28;20271;-61
2022/09/24 01:56:27;;;;;;;0.80;0.80;;;;;9.70;95643.00;;;;5112553;28;20272;-63
2022/09/24 01:59:01;;;;;;;0.80;0.80;;;;;9.70;95643.00;;;;5112758;28;20193;-64
2022/09/24 02:01:32;;;;;;;1.80;1.43;;;;;9.70;95639.00;;;;5098141;28;20672;-64
2022/09/24 02:04:05;;;;;;;0.70;0.70;;;;;9.80;95631.00;;;;5116209;28;20205;-64
2022/09/24 02:06:37;;;;;;;0.90;0.90;;;;;9.70;95626.00;;;;5115969;28;20217;-64
2022/09/24 02:09:04;;;;;;;0.80;0.80;;;;;9.50;95629.00;;;;5097913;28;20646;-63
2022/09/24 02:11:35;;;;;;;0.80;0.80;;;;;9.40;95647.00;;;;5116010;28;20205;-64
2022/09/24 02:14:08;;;;;;;0.70;0.70;;;;;9.60;95643.00;;;;5115893;28;20239;-63
2022/09/24 02:16:38;;;;;;;1.30;1.23;;;;;9.70;95637.00;;;;5115760;28;20189;-62
2022/09/24 02:19:10;;;;;;;1.03;1.03;;;;;9.60;95637.00;;;;5115722;28;20216;-63
2022/09/24 02:21:39;;;;;;;0.73;0.73;;;;;9.60;95636.00;;;;5115747;28;20205;-64
2022/09/24 02:24:11;;;;;;;1.27;1.20;;;;;9.70;95634.00;;;;5115746;28;20241;-64
2022/09/24 02:26:38;;;;;;;1.03;1.03;;;;;9.70;95627.00;;;;5115639;28;20213;-64
2022/09/24 02:29:06;;;;;;;5.23;1.37;;;;;9.70;95624.00;;;;5097447;28;20233;-61
2022/09/24 02:31:37;;;;;;;1.83;1.53;;;;;9.70;95614.00;;;;5115619;28;20193;-64
2022/09/24 02:34:20;;;;;;;1.03;1.03;;;;;9.60;95625.00;;;;5115517;28;20194;-64
2022/09/24 02:36:52;;;;;;;1.10;1.10;;;;;9.70;95621.00;;;;5115698;28;20193;-64
2022/09/24 02:39:18;;;;;;;0.80;0.80;;;;;9.60;95634.00;;;;5115681;28;20220;-64
2022/09/24 02:41:47;;;;;;;1.40;1.30;;;;;9.50;95626.00;;;;5115676;28;20193;-66
2022/09/24 02:44:14;;;;;;;1.03;1.03;;;;;9.50;95627.00;;;;5097737;28;20201;-64
2022/09/24 02:46:41;;;;;;;1.43;1.20;;;;;9.40;95631.00;;;;5115464;28;20218;-64
2022/09/24 02:49:09;;;;;;;0.83;0.83;;;;;9.50;95628.00;;;;5115313;28;20271;-64
2022/09/24 02:51:36;;;;;;;1.23;1.23;;;;;9.60;95630.00;;;;5115323;28;20210;-64
2022/09/24 02:54:03;;;;;;;1.07;1.07;;;;;9.50;95623.00;;;;5115452;28;20224;-67
2022/09/24 02:56:29;;;;;;;0.83;0.83;;;;;9.60;95621.00;;;;5115198;28;20186;-64
2022/09/24 02:58:56;;;;;;;1.33;1.23;;;;;9.60;95610.00;;;;5115297;28;20205;-64
2022/09/24 03:01:23;;;;;;;1.20;1.20;;;;;9.70;95605.00;;;;5115301;28;20189;-65
2022/09/24 03:03:50;;;;;;;0.90;0.90;;;;;9.70;95602.00;;;;5115214;28;20271;-64
2022/09/24 03:06:17;;;;;;;1.00;1.00;;;;;9.80;95610.00;;;;5097167;28;20221;-65
2022/09/24 03:08:46;;;;;;;0.77;0.77;;;;;9.80;95609.00;;;;5114886;28;20241;-64
2022/09/24 03:11:16;;;;;;;1.13;1.13;;;;;9.60;95609.00;;;;5114932;28;20182;-64
2022/09/24 03:13:44;;;;;;;1.10;1.10;;;;;9.70;95604.00;;;;5115055;28;20230;-67
2022/09/24 03:16:11;;;;;;;1.00;1.00;;;;;9.70;95599.00;;;;5114960;28;20202;-64
2022/09/24 03:18:38;;;;;;;1.10;1.00;;;;;9.80;95601.00;;;;5097073;28;20205;-64
2022/09/24 03:21:07;;;;;;;1.53;1.43;;;;;9.80;95596.00;;;;5114828;28;20197;-64
2022/09/24 03:23:35;;;;;;;1.53;1.43;;;;;9.80;95585.00;;;;5097166;28;20596;-65
2022/09/24 03:26:03;;;;;;;0.90;0.90;;;;;9.70;95590.00;;;;5114894;28;20197;-63
2022/09/24 03:28:30;;;;;;;0.70;0.70;;;;;9.50;95591.00;;;;5114920;28;20218;-64
2022/09/24 03:31:00;;;;;;;0.97;0.97;;;;;9.40;95592.00;;;;5114625;28;20217;-64
2022/09/24 03:33:28;;;;;;;1.67;1.57;;;;;9.40;95590.00;;;;5096809;28;20201;-64
2022/09/24 03:35:59;;;;;;;1.10;1.10;;;;;9.40;95596.00;;;;5114696;28;20228;-65
2022/09/24 03:38:27;;;;;;;0.80;0.80;;;;;9.40;95599.00;;;;5114949;28;20198;-63
2022/09/24 03:40:55;;;;;;;0.90;0.90;;;;;9.40;95600.00;;;;5096541;28;20206;-64
2022/09/24 03:43:22;;;;;;;0.93;0.93;;;;;9.50;95585.00;;;;5096636;28;20194;-64
2022/09/24 03:45:48;;;;;;;0.93;0.93;;;;;9.50;95584.00;;;;5114544;28;20538;-65
2022/09/24 03:48:15;;;;;;;1.13;1.13;;;;;9.60;95584.00;;;;5114401;28;20236;-64
2022/09/24 03:50:42;;;;;;;1.00;1.00;;;;;9.60;95593.00;;;;5114547;28;20214;-64
2022/09/24 03:53:09;;;;;;;1.23;1.20;;;;;9.70;95599.00;;;;5114427;28;20222;-63
2022/09/24 03:55:41;;;;;;;1.13;1.03;;;;;9.40;95598.00;;;;5114475;28;20255;-64
2022/09/24 03:58:08;;;;;;;0.80;0.80;;;;;9.40;95593.00;;;;5114398;28;20206;-64
2022/09/24 04:00:35;;;;;;;0.97;0.97;;;;;9.40;95578.00;;;;5114566;28;20196;-65
2022/09/24 04:03:04;;;;;;;1.27;0.90;;;;;9.50;95581.00;;;;5115492;28;20198;-64
2022/09/24 04:05:31;;;;;;;0.73;0.73;;;;;9.50;95551.00;;;;5114333;28;20573;-64
2022/09/24 04:07:59;;;;;;;1.50;1.40;;;;;9.50;95581.00;;;;5114192;28;20214;-65
2022/09/24 04:10:28;;;;;;;2.10;1.00;;;;;9.50;95585.00;;;;5114701;28;20249;-62
2022/09/24 04:12:55;;;;;;;1.20;1.10;;;;;9.40;95577.00;;;;5114303;28;20197;-64
2022/09/24 04:15:23;;;;;;;0.93;0.93;;;;;9.50;95575.00;;;;5114064;28;20527;-64
2022/09/24 04:17:53;;;;;;;1.23;1.13;;;;;9.50;95569.00;;;;5116882;28;20202;-63
2022/09/24 04:20:22;;;;;;;0.80;0.80;;;;;9.40;95569.00;;;;5114112;28;20201;-63
2022/09/24 04:22:49;;;;;;;1.53;1.43;;;;;9.50;95572.00;;;;5113567;28;20190;-65
2022/09/24 04:25:16;;;;;;;0.83;0.83;;;;;9.50;95570.00;;;;5114080;28;20194;-65
2022/09/24 04:27:43;;;;;;;1.20;1.20;;;;;9.50;95563.00;;;;5113905;28;20229;-65
2022/09/24 04:30:12;;;;;;;2.10;1.67;;;;;9.50;95556.00;;;;5114037;28;20189;-65
2022/09/24 04:32:40;;;;;;;1.07;1.07;;;;;9.50;95551.00;;;;5113729;28;20734;-65
2022/09/24 04:35:10;;;;;;;1.03;0.97;;;;;9.60;95561.00;;;;5114055;28;20277;-65
2022/09/24 04:37:37;;;;;;;1.10;1.10;;;;;9.60;95566.00;;;;5113730;28;20718;-64
2022/09/24 04:40:04;;;;;;;0.73;0.73;;;;;9.50;95566.00;;;;5113852;28;20219;-64
2022/09/24 04:42:32;;;;;;;1.80;1.70;;;;;9.60;95558.00;;;;5095695;28;20527;-62
2022/09/24 04:44:59;;;;;;;1.30;1.30;;;;;9.60;95561.00;;;;5113598;28;20649;-63
2022/09/24 04:47:26;;;;;;;0.87;0.87;;;;;9.50;95562.00;;;;5113546;28;20642;-63
2022/09/24 04:49:56;;;;;;;0.87;0.87;;;;;9.40;95556.00;;;;5113619;28;20240;-65
2022/09/24 04:52:25;;;;;;;5.83;1.10;;;;;9.30;95565.00;;;;5113453;28;20190;-65
2022/09/24 04:54:53;;;;;;;2.20;1.83;;;;;9.30;95555.00;;;;5113389;28;20665;-65
2022/09/24 04:57:20;;;;;;;1.30;1.20;;;;;9.40;95561.00;;;;5113496;28;20197;-65
2022/09/24 04:59:47;;;;;;;0.80;0.80;;;;;9.40;95563.00;;;;5113197;28;20210;-65
2022/09/24 05:02:14;;;;;;;1.70;1.30;;;;;9.40;95568.00;;;;5113492;28;20266;-66
2022/09/24 05:04:41;;;;;;;1.63;1.53;;;;;9.40;95566.00;;;;5113427;28;20205;-64
2022/09/24 05:07:12;;;;;;;1.27;1.20;;;;;9.40;95562.00;;;;5113590;28;20202;-65
2022/09/24 05:09:39;;;;;;;0.80;0.80;;;;;9.40;95567.00;;;;5113329;28;20224;-65
2022/09/24 05:12:06;;;;;;;1.23;1.23;;;;;9.40;95565.00;;;;5113243;28;20663;-66
2022/09/24 05:14:32;;;;;;;1.50;1.40;;;;;9.50;95562.00;;;;5113340;28;20194;-65
2022/09/24 05:17:02;;;;;;;0.60;0.60;;;;;9.50;95559.00;;;;5113263;28;20222;-65
2022/09/24 05:19:28;;;;;;;1.13;1.10;;;;;9.50;95567.00;;;;5113255;28;20205;-64
2022/09/24 05:21:55;;;;;;;0.90;0.90;;;;;9.50;95573.00;;;;5113065;28;20190;-62
2022/09/24 05:24:23;;;;;;;1.13;1.13;;;;;9.50;95577.00;;;;5113305;28;20273;-65
2022/09/24 05:27:08;;;;;;;1.50;1.40;;;;;9.60;95582.00;;;;5113103;28;20182;-63
2022/09/24 05:29:36;;;;;;;0.87;0.87;;;;;9.50;95568.00;;;;5095091;28;20226;-64
2022/09/24 05:32:06;;;;;;;1.33;1.33;;;;;9.50;95580.00;;;;5113128;28;20194;-65
2022/09/24 05:34:33;;;;;;;1.37;1.27;;;;;9.60;95576.00;;;;5113954;28;20228;-65
2022/09/24 05:37:01;;;;;;;1.23;1.23;;;;;9.60;95578.00;;;;5116590;28;20262;-65
2022/09/24 05:39:29;;;;;;;0.83;0.83;;;;;9.60;95579.00;;;;5098585;28;20591;-64
2022/09/24 05:41:58;;;;;;;1.33;1.13;;;;;9.60;95570.00;;;;5116456;28;20198;-65
2022/09/24 05:44:25;;;;;;;0.80;0.80;;;;;9.60;95574.00;;;;5098498;28;20201;-65
2022/09/24 05:46:54;;;;;;;0.83;0.83;;;;;9.60;95575.00;;;;5116504;28;20198;-65
2022/09/24 05:49:21;;;;;;;1.23;1.23;;;;;9.60;95582.00;;;;5116356;28;20561;-64
2022/09/24 05:51:50;;;;;;;0.73;0.73;;;;;9.60;95581.00;;;;5116549;28;20204;-67
2022/09/24 05:54:18;;;;;;;1.20;1.20;;;;;9.50;95582.00;;;;5116358;28;20190;-65
2022/09/24 05:56:47;;;;;;;1.33;1.20;;;;;9.40;95581.00;;;;5116321;28;20221;-65
2022/09/24 05:59:14;;;;;;;1.30;1.30;;;;;9.50;95583.00;;;;5097893;28;20250;-65
2022/09/24 06:01:41;;;;;;;0.93;0.90;;;;;9.60;95575.00;;;;5116172;28;20282;-65
2022/09/24 06:04:08;;;;;;;1.37;1.37;;;;;9.60;95578.00;;;;5098147;28;20209;-66
2022/09/24 06:06:35;;;;;;;0.73;0.73;;;;;9.80;95577.00;;;;5116068;28;20289;-65
2022/09/24 06:09:02;;;;;;;1.10;1.10;;;;;9.80;95597.00;;;;5116068;28;20670;-65
2022/09/24 06:11:33;;;;;;;1.00;1.00;;;;;9.80;95595.00;;;;5115944;28;20202;-66
2022/09/24 06:14:01;;;;;;;0.70;0.70;;;;;9.80;95605.00;;;;5116078;28;20313;-65
2022/09/24 06:16:32;;;;;;;1.30;1.23;;;;;9.90;95606.00;;;;5116128;28;20198;-67
2022/09/24 06:18:59;;;;;;;0.73;0.73;;;;;9.90;95602.00;;;;5115768;28;20291;-65
2022/09/24 06:21:26;;;;;;;1.10;1.03;;;;;10.00;95600.00;;;;5115590;28;20194;-66
2022/09/24 06:23:53;;;;;;;2.43;1.30;;;;;10.10;95590.00;;;;5115839;28;20217;-63
2022/09/24 06:26:19;;;;;;;0.77;0.77;;;;;10.20;95589.00;;;;5116108;28;20208;-65
2022/09/24 06:28:46;;;;;;;0.93;0.93;;;;;10.30;95596.00;;;;5115763;28;20218;-65
2022/09/24 06:31:13;;;;;;;1.50;1.40;;;;;10.20;95598.00;;;;5115819;28;20272;-65
2022/09/24 06:33:41;;;;;;;1.00;1.00;;;;;10.20;95597.00;;;;5115762;28;20266;-65
2022/09/24 06:36:08;;;;;;;1.37;1.27;;;;;10.10;95597.00;;;;5115719;28;20193;-65
2022/09/24 06:38:35;;;;;;;1.00;1.00;;;;;10.20;95605.00;;;;5115703;28;20201;-65
2022/09/24 06:41:04;;;;;;;1.13;1.13;;;;;10.20;95612.00;;;;5115374;28;20229;-65
2022/09/24 06:43:31;;;;;;;1.57;1.47;;;;;10.30;95608.00;;;;5115494;28;20239;-65
2022/09/24 06:45:59;;;;;;;0.87;0.87;;;;;10.40;95600.00;;;;5114961;28;20274;-65
2022/09/24 06:48:27;;;;;;;1.00;1.00;;;;;10.40;95566.00;;;;5115334;28;20225;-65
2022/09/24 06:50:55;;;;;;;1.00;1.00;;;;;10.50;95587.00;;;;5097455;28;20198;-63
2022/09/24 06:53:22;;;;;;;1.30;1.27;;;;;10.60;95599.00;;;;5115335;28;20201;-65
2022/09/24 06:55:49;;;;;;;2.57;2.37;;;;;10.60;95616.00;;;;5115298;28;20641;-65
2022/09/24 06:58:18;;;;;;;3.60;2.00;;;;;10.60;95607.00;;;;5097228;28;20248;-65
2022/09/24 07:00:52;;;;;;;2.13;2.00;;;;;10.70;95613.00;;;;5115202;28;20193;-61
2022/09/24 07:03:19;;;;;;;0.90;0.90;;;;;10.70;95613.00;;;;5115200;28;20525;-65
2022/09/24 07:05:49;;;;;;;1.53;1.47;;;;;10.70;95617.00;;;;5115154;28;20194;-63
2022/09/24 07:08:16;;;;;;;0.87;0.87;;;;;10.80;95606.00;;;;5114991;28;20644;-63
2022/09/24 07:10:44;;;;;;;1.37;1.37;;;;;10.90;95605.00;;;;5115339;28;20190;-64
2022/09/24 07:13:12;;;;;;;1.10;1.10;;;;;11.00;95602.00;;;;5115213;28;20256;-65
2022/09/24 07:15:39;;;;;;;0.93;0.93;;;;;11.10;95606.00;;;;5114927;28;20200;-65
2022/09/24 07:18:06;;;;;;;1.40;1.30;;;;;11.10;95610.00;;;;5115315;28;20197;-65
2022/09/24 07:20:35;;;;;;;1.07;1.07;;;;;11.30;95609.00;;;;5115134;28;20217;-66
2022/09/24 07:23:03;;;;;;;1.77;1.67;;;;;11.30;95620.00;;;;5115256;28;20269;-65
2022/09/24 07:25:30;;;;;;;3.13;1.80;;;;;11.30;95614.00;;;;5114998;28;20305;-65
2022/09/24 07:28:02;;;;;;;0.73;0.73;;;;;11.30;95613.00;;;;5096772;28;20213;-66
2022/09/24 07:30:29;;;;;;;1.53;1.43;;;;;11.40;95617.00;;;;5114694;28;20201;-65
2022/09/24 07:32:58;;;;;;;0.90;0.90;;;;;11.50;95621.00;;;;5114823;28;20174;-68
2022/09/24 07:35:25;;;;;;;1.07;1.07;;;;;11.60;95623.00;;;;5114760;28;20225;-66
2022/09/24 07:38:00;;;;;;;1.23;1.23;;;;;11.60;95629.00;;;;5114730;28;20657;-64
2022/09/24 07:40:28;;;;;;;4.17;1.83;;;;;11.60;95627.00;;;;5114726;28;20235;-66
2022/09/24 07:42:56;;;;;;;0.73;0.73;;;;;11.60;95636.00;;;;5096640;28;20222;-66
2022/09/24 07:45:24;;;;;;;4.50;1.23;;;;;11.60;95630.00;;;;5114609;28;20276;-66
2022/09/24 07:47:57;;;;;;;0.80;0.80;;;;;11.50;95632.00;;;;5114468;28;20234;-66
2022/09/24 07:50:26;;;;;;;1.17;1.07;;;;;11.60;95634.00;;;;5096768;28;20225;-66
2022/09/24 07:52:53;;;;;;;1.30;1.23;;;;;11.80;95638.00;;;;5114311;28;20232;-66
2022/09/24 07:55:20;;;;;;;1.97;1.87;;;;;11.90;95640.00;;;;5114383;28;20210;-65
2022/09/24 07:57:51;;;;;;;1.23;1.23;;;;;12.00;95636.00;;;;5113274;28;20304;-65
2022/09/24 08:00:19;;;;;;;1.60;1.50;;;;;12.10;95634.00;;;;5114325;28;20262;-66
2022/09/24 08:02:47;;;;;;;1.73;1.63;;;;;12.30;95630.00;;;;5096124;28;20222;-66
2022/09/24 08:05:16;;;;;;;0.93;0.93;;;;;12.40;95623.00;;;;5096354;28;20237;-66
2022/09/24 08:07:50;;;;;;;1.23;1.13;;;;;12.50;95638.00;;;;5114081;28;20564;-67
2022/09/24 08:10:17;;;;;;;0.90;0.90;;;;;12.70;95639.00;;;;5114190;28;20277;-66
2022/09/24 08:12:44;;;;;;;11.00;1.27;;;;;12.80;95643.00;;;;5096022;28;20555;-66
2022/09/24 08:15:11;;;;;;;0.80;0.80;;;;;12.80;95643.00;;;;5096314;28;20381;-66
2022/09/24 08:17:38;;;;;;;1.27;1.17;;;;;12.90;95649.00;;;;5113973;28;20617;-66
2022/09/24 08:20:06;;;;;;;1.03;1.03;;;;;12.90;95641.00;;;;5114138;28;20276;-67
2022/09/24 08:22:33;;;;;;;1.00;1.00;;;;;13.10;95635.00;;;;5114098;28;20259;-67
2022/09/24 08:25:01;;;;;;;2.17;1.93;;;;;13.30;95641.00;;;;5096115;28;20212;-67
2022/09/24 08:27:28;;;;;;;1.17;1.17;;;;;13.40;95627.00;;;;5095736;28;20262;-65
2022/09/24 08:29:56;;;;;;;1.80;1.50;;;;;13.70;95645.00;;;;5095532;28;20221;-65
2022/09/24 08:32:24;;;;;;;0.80;0.80;;;;;13.90;95652.00;;;;5095872;28;20198;-67
2022/09/24 08:34:51;;;;;;;0.97;0.97;;;;;14.10;95648.00;;;;5113705;28;20230;-67
2022/09/24 08:37:18;;;;;;;1.10;1.10;;;;;14.10;95648.00;;;;5113886;28;20200;-67
2022/09/24 08:39:46;;;;;;;0.70;0.70;;;;;14.10;95649.00;;;;5113745;28;20221;-67
2022/09/24 08:42:21;;;;;;;1.23;1.23;;;;;13.90;95643.00;;;;5113229;28;20217;-67
2022/09/24 08:47:40;;;;;;;0.70;0.70;;;;;13.90;95649.00;;;;5113385;28;20210;-66
2022/09/24 08:50:11;;;;;;;0.67;0.67;;;;;13.80;95648.00;;;;5095795;28;20551;-65
2022/09/24 08:53:00;;;;;;;0.63;0.63;;;;;13.70;95650.00;;;;5113578;28;20605;-65
2022/09/24 08:55:33;;;;;;;0.77;0.77;;;;;13.60;95652.00;;;;5113582;28;20225;-65
2022/09/24 08:58:25;;;;;;;0.87;0.87;;;;;13.70;95650.00;;;;5113512;28;20240;-64
2022/09/24 09:00:58;;;;;;;0.67;0.67;;;;;13.50;95652.00;;;;5113396;28;20213;-65
2022/09/24 09:03:34;;;;;;;0.83;0.83;;;;;13.50;95655.00;;;;5113732;28;20229;-65
2022/09/24 09:06:04;;;;;;;0.50;0.50;;;;;13.50;95650.00;;;;5113332;28;20217;-65
2022/09/24 09:08:41;;;;;;;0.43;0.43;;;;;13.60;95646.00;;;;5114313;28;20296;-65
2022/09/24 09:11:12;;;;;;;0.50;0.50;;;;;13.70;95650.00;;;;5116940;28;20233;-65
2022/09/24 09:13:47;;;;;;;0.60;0.60;;;;;13.60;95640.00;;;;5116973;28;20244;-65
2022/09/24 09:16:21;;;;;;;0.73;0.73;;;;;13.70;95653.00;;;;5116748;28;20673;-65
2022/09/24 09:18:55;;;;;;;1.00;1.00;;;;;13.80;95637.00;;;;5116916;28;20193;-65
2022/09/24 09:21:30;;;;;;;0.87;0.87;;;;;13.60;95649.00;;;;5116858;28;20217;-66
2022/09/24 09:24:00;;;;;;;0.63;0.63;;;;;13.60;95652.00;;;;5116898;28;20247;-66
2022/09/24 09:26:27;;;;;;;0.60;0.60;;;;;13.70;95655.00;;;;5116588;28;20218;-65
2022/09/24 09:28:59;;;;;;;1.17;1.13;;;;;13.60;95654.00;;;;5116668;28;20309;-67
2022/09/24 09:31:39;;;;;;;0.70;0.70;;;;;13.70;95649.00;;;;5116683;28;20218;-66
2022/09/24 09:34:30;;;;;;;3.10;1.50;;;;;13.90;95635.00;;;;5116624;28;20629;-67
2022/09/24 09:37:13;;;;;;;0.90;0.90;;;;;14.10;95633.00;;;;5116565;28;20222;-67
2022/09/24 09:39:50;;;;;;;0.90;0.90;;;;;14.10;95639.00;;;;5116607;28;20220;-67
2022/09/24 09:42:28;;;;;;;0.70;0.70;;;;;14.20;95641.00;;;;5116502;28;20653;-67
2022/09/24 09:44:55;;;;;;;0.70;0.70;;;;;14.20;95645.00;;;;5116582;28;20286;-67
2022/09/24 09:47:34;;;;;;;0.70;0.70;;;;;14.20;95642.00;;;;5116344;28;20218;-68
2022/09/24 09:50:05;;;;;;;0.60;0.60;;;;;14.10;95645.00;;;;5116457;28;20218;-67
2022/09/24 09:52:37;;;;;;;0.70;0.70;;;;;14.10;95654.00;;;;5116303;28;20641;-64
2022/09/24 09:55:05;;;;;;;0.60;0.60;;;;;14.10;95648.00;;;;5116372;28;20496;-67
2022/09/24 09:57:35;;;;;;;0.50;0.50;;;;;14.10;95652.00;;;;5115924;28;20545;-67
2022/09/24 10:00:05;;;;;;;0.80;0.80;;;;;13.90;95653.00;;;;5116219;28;20205;-67
2022/09/24 10:02:34;;;;;;;0.30;0.30;;;;;13.80;95642.00;;;;5116162;28;20255;-68
2022/09/24 10:05:04;;;;;;;0.50;0.50;;;;;14.00;95641.00;;;;5116227;28;20674;-64
2022/09/24 10:07:31;;;;;;;0.63;0.63;;;;;14.00;95641.00;;;;5116128;28;20222;-64
2022/09/24 10:10:01;;;;;;;0.67;0.67;;;;;14.10;95646.00;;;;5116044;28;20221;-66
2022/09/24 10:12:30;;;;;;;0.50;0.50;;;;;14.10;95651.00;;;;5115942;28;20222;-65
2022/09/24 10:14:59;;;;;;;6.10;0.97;;;;;14.10;95649.00;;;;5116081;28;20500;-65
2022/09/24 10:17:30;;;;;;;0.70;0.70;;;;;14.10;95652.00;;;;5115887;28;20221;-66
2022/09/24 10:19:59;;;;;;;0.60;0.60;;;;;14.30;95647.00;;;;5115197;28;20280;-65
2022/09/24 10:22:27;;;;;;;0.60;0.60;;;;;14.40;95656.00;;;;5115778;28;20246;-65
2022/09/24 10:24:56;;;;;;;1.13;1.03;;;;;14.30;95644.00;;;;5115838;28;20243;-65
2022/09/24 10:27:31;;;;;;;0.60;0.60;;;;;14.20;95648.00;;;;5115835;28;20283;-65
2022/09/24 10:32:47;;;;;;;1.27;1.17;;;;;14.30;95633.00;;;;5115733;28;20190;-63
2022/09/24 10:35:25;;;;;;;0.50;0.50;;;;;14.30;95627.00;;;;5097958;28;20206;-65
2022/09/24 10:37:54;;;;;;;0.90;0.90;;;;;14.40;95645.00;;;;5115857;28;20208;-65
2022/09/24 10:40:24;;;;;;;0.50;0.50;;;;;14.50;95642.00;;;;5115630;28;20685;-65
2022/09/24 10:42:59;;;;;;;0.60;0.60;;;;;14.50;95632.00;;;;5115644;28;20216;-65
2022/09/24 10:45:45;;;;;;;0.40;0.40;;;;;14.20;95633.00;;;;5115487;28;20201;-65
2022/09/24 10:48:19;;;;;;;0.40;0.40;;;;;14.50;95645.00;;;;5111609;28;20229;-65
2022/09/24 10:50:55;;;;;;;1.57;1.47;;;;;14.60;95637.00;;;;5115263;28;20268;-66
2022/09/24 10:53:38;;;;;;;0.63;0.63;;;;;14.50;95629.00;;;;5115262;28;20212;-66
2022/09/24 10:56:17;;;;;;;0.60;0.60;;;;;14.50;95636.00;;;;5115406;28;20198;-66
2022/09/24 10:59:07;;;;;;;1.20;1.20;;;;;14.50;95637.00;;;;5115389;28;20204;-67
2022/09/24 11:01:41;;;;;;;0.87;0.87;;;;;14.30;95635.00;;;;5115361;28;20232;-67
2022/09/24 11:04:25;;;;;;;0.67;0.67;;;;;14.10;95641.00;;;;5115397;28;20190;-64
2022/09/24 11:07:24;;;;;;;0.47;0.47;;;;;14.30;95648.00;;;;5115269;28;20190;-65
2022/09/24 11:10:01;;;;;;;0.60;0.60;;;;;14.30;95651.00;;;;5110898;28;20306;-64
2022/09/24 11:12:39;;;;;;;0.50;0.50;;;;;14.60;95636.00;;;;5097237;28;20285;-65
2022/09/24 11:15:21;;;;;;;1.03;1.03;;;;;14.70;95642.00;;;;5115085;28;20238;-65
2022/09/24 11:18:08;;;;;;;0.60;0.60;;;;;14.70;95652.00;;;;5115023;28;20198;-63
2022/09/24 11:20:38;;;;;;;0.70;0.70;;;;;14.70;95645.00;;;;5114891;28;20270;-67
2022/09/24 11:23:25;;;;;;;0.80;0.80;;;;;14.70;95656.00;;;;5114965;28;20194;-67
2022/09/24 11:26:00;;;;;;;0.60;0.60;;;;;14.80;95643.00;;;;5114955;28;20256;-66
2022/09/24 11:28:44;;;;;;;0.70;0.70;;;;;14.60;95643.00;;;;5114796;28;20224;-67
2022/09/24 11:31:20;;;;;;;0.50;0.50;;;;;14.70;95645.00;;;;5114732;28;20233;-67
2022/09/24 11:34:04;;;;;;;0.70;0.70;;;;;14.70;95656.00;;;;5114952;28;20503;-67
2022/09/24 11:36:51;;;;;;;0.60;0.60;;;;;14.50;95638.00;;;;5114578;28;20609;-68
2022/09/24 11:39:34;;;;;;;1.70;1.60;;;;;14.50;95640.00;;;;5114695;28;20194;-67
2022/09/24 11:42:15;;;;;;;0.50;0.50;;;;;14.40;95644.00;;;;5114616;28;20644;-68
2022/09/24 11:44:59;;;;;;;0.50;0.50;;;;;14.20;95639.00;;;;5114629;28;20238;-67
2022/09/24 11:47:39;;;;;;;0.50;0.50;;;;;14.40;95637.00;;;;5114276;28;20231;-66
2022/09/24 11:50:22;;;;;;;0.53;0.53;;;;;14.50;95636.00;;;;5114108;28;20392;-66
2022/09/24 11:52:55;;;;;;;0.40;0.40;;;;;14.60;95636.00;;;;5114266;28;20234;-68
2022/09/24 11:55:33;;;;;;;0.90;0.90;;;;;14.60;95630.00;;;;5114337;28;20524;-66
2022/09/24 11:58:11;;;;;;;0.40;0.40;;;;;14.40;95629.00;;;;5096373;28;20205;-65
2022/09/24 12:00:44;;;;;;;0.90;0.90;;;;;14.50;95626.00;;;;5114111;28;20214;-66
2022/09/24 12:03:19;;;;;;;1.03;1.03;;;;;14.50;95631.00;;;;5114262;28;20684;-66
2022/09/24 12:05:55;;;;;;;0.50;0.50;;;;;14.50;95623.00;;;;5114232;28;20644;-66
2022/09/24 12:08:27;;;;;;;0.60;0.60;;;;;14.70;95620.00;;;;5114032;28;20232;-66
2022/09/24 12:11:00;;;;;;;0.43;0.43;;;;;14.80;95617.00;;;;5114089;28;20205;-66
2022/09/24 12:13:33;;;;;;;0.40;0.40;;;;;15.10;95610.00;;;;5114196;28;20562;-67
2022/09/24 12:16:04;;;;;;;0.60;0.60;;;;;15.30;95612.00;;;;5114094;28;20194;-66
2022/09/24 12:18:35;;;;;;;0.70;0.70;;;;;15.20;95606.00;;;;5113744;28;20276;-65
2022/09/24 12:21:06;;;;;;;1.00;1.00;;;;;15.30;95609.00;;;;5113937;28;20193;-66
2022/09/24 12:23:38;;;;;;;0.93;0.93;;;;;15.40;95605.00;;;;5113783;28;20229;-66
2022/09/24 12:26:06;;;;;;;0.53;0.53;;;;;15.30;95605.00;;;;5113921;28;20742;-66
2022/09/24 12:34:32;;;;;;;0.60;0.60;;;;;15.00;95602.00;;;;5113797;28;20222;-67
2022/09/24 12:37:04;;;;;;;0.80;0.80;;;;;15.10;95599.00;;;;5113722;28;20641;-65
2022/09/24 12:39:37;;;;;;;0.80;0.80;;;;;15.10;95573.00;;;;5113698;28;20261;-66
2022/09/24 12:42:09;;;;;;;0.40;0.40;;;;;15.10;95595.00;;;;5113759;28;20273;-67
2022/09/24 12:44:43;;;;;;;0.90;0.90;;;;;15.10;95596.00;;;;5113067;28;20210;-66
2022/09/24 12:47:20;;;;;;;0.70;0.70;;;;;15.20;95590.00;;;;5113875;28;20548;-67
2022/09/24 12:49:51;;;;;;;1.07;1.07;;;;;15.20;95590.00;;;;5113672;28;20304;-67
2022/09/24 12:52:23;;;;;;;1.00;1.00;;;;;15.30;95588.00;;;;5113675;28;20189;-66